createdAt,value
2022-10-22T00:01:23.005Z,6.95
2022-10-22T00:03:51.477Z,7.13
2022-10-22T00:06:19.967Z,7.00
2022-10-22T00:08:48.461Z,6.80
2022-10-22T00:11:18.539Z,7.90
2022-10-22T00:16:22.058Z,8.47
2022-10-22T00:18:50.520Z,6.10
2022-10-22T00:21:19.025Z,7.13
2022-10-22T00:23:47.447Z,6.28
2022-10-22T00:26:15.639Z,8.30
2022-10-22T00:28:43.775Z,5.60
2022-10-22T00:31:12.210Z,4.50
2022-10-22T00:33:41.725Z,6.40
2022-10-22T00:36:10.322Z,6.95
2022-10-22T00:38:38.784Z,6.03
2022-10-22T00:41:07.339Z,5.93
2022-10-22T00:43:54.056Z,4.82
2022-10-22T00:46:22.210Z,6.30
2022-10-22T00:48:52.319Z,7.88
2022-10-22T00:51:22.842Z,5.22
2022-10-22T00:53:56.119Z,5.70
2022-10-22T00:56:24.791Z,6.65
2022-10-22T00:58:56.918Z,6.97
2022-10-22T01:01:27.664Z,6.88
2022-10-22T01:03:57.477Z,5.97
2022-10-22T01:06:27.820Z,10.53
2022-10-22T01:09:07.571Z,6.10
2022-10-22T01:11:46.494Z,9.20
2022-10-22T01:14:22.861Z,5.75
2022-10-22T01:16:56.185Z,6.38
2022-10-22T01:19:41.078Z,6.83
2022-10-22T01:22:18.488Z,7.22
2022-10-22T01:24:56.846Z,5.30
2022-10-22T01:27:34.216Z,8.27
2022-10-22T01:30:06.914Z,4.80
2022-10-22T01:32:41.009Z,5.27
2022-10-22T01:35:13.505Z,6.53
2022-10-22T01:37:47.105Z,4.53
2022-10-22T01:40:17.650Z,5.68
2022-10-22T01:42:56.459Z,7.43
2022-10-22T01:45:26.629Z,5.80
2022-10-22T01:48:05.797Z,5.25
2022-10-22T01:51:05.475Z,7.50
2022-10-22T01:53:41.998Z,6.60
2022-10-22T01:56:29.898Z,6.30
2022-10-22T01:59:09.335Z,6.73
2022-10-22T02:01:44.916Z,5.70
2022-10-22T02:04:18.273Z,8.18
2022-10-22T02:06:49.350Z,8.00
2022-10-22T02:09:19.601Z,9.88
2022-10-22T02:11:48.841Z,7.97
2022-10-22T02:14:18.888Z,6.97
2022-10-22T02:16:50.407Z,5.38
2022-10-22T02:19:24.399Z,6.50
2022-10-22T02:21:53.854Z,6.72
2022-10-22T02:24:23.679Z,5.67
2022-10-22T02:27:00.180Z,6.70
2022-10-22T02:29:31.570Z,6.45
2022-10-22T02:32:04.195Z,6.47
2022-10-22T02:34:33.734Z,7.22
2022-10-22T02:37:04.302Z,6.70
2022-10-22T02:39:33.585Z,5.97
2022-10-22T02:42:02.909Z,5.53
2022-10-22T02:44:31.078Z,5.68
2022-10-22T02:47:01.217Z,4.20
2022-10-22T02:49:29.921Z,4.33
2022-10-22T02:51:58.635Z,6.38
2022-10-22T02:54:27.051Z,4.40
2022-10-22T02:56:55.490Z,6.22
2022-10-22T02:59:24.021Z,5.07
2022-10-22T03:01:52.500Z,5.40
2022-10-22T03:04:22.028Z,5.30
2022-10-22T03:06:50.340Z,7.75
2022-10-22T03:09:21.394Z,8.73
2022-10-22T03:11:52.593Z,6.40
2022-10-22T03:14:21.257Z,4.80
2022-10-22T03:16:49.741Z,6.55
2022-10-22T03:19:18.425Z,5.75
2022-10-22T03:21:51.406Z,5.00
2022-10-22T03:24:22.596Z,6.15
2022-10-22T03:26:52.939Z,6.07
2022-10-22T03:29:24.584Z,5.93
2022-10-22T03:31:53.818Z,6.30
2022-10-22T03:34:22.445Z,5.75
2022-10-22T03:36:53.226Z,5.50
2022-10-22T03:39:23.398Z,4.63
2022-10-22T03:41:52.392Z,3.92
2022-10-22T03:44:24.650Z,4.85
2022-10-22T03:46:53.247Z,4.13
2022-10-22T03:49:21.711Z,4.75
2022-10-22T03:51:50.172Z,3.70
2022-10-22T03:54:19.797Z,5.13
2022-10-22T03:56:48.265Z,3.83
2022-10-22T03:59:16.870Z,3.72
2022-10-22T04:01:45.332Z,6.65
2022-10-22T04:04:13.837Z,4.60
2022-10-22T04:06:42.455Z,7.47
2022-10-22T04:09:10.734Z,4.55
2022-10-22T04:11:40.312Z,5.60
2022-10-22T04:14:08.796Z,7.35
2022-10-22T04:16:37.318Z,3.93
2022-10-22T04:19:05.745Z,5.88
2022-10-22T04:21:34.283Z,3.95
2022-10-22T04:24:03.120Z,4.43
2022-10-22T04:26:31.572Z,8.05
2022-10-22T04:29:01.103Z,7.27
2022-10-22T04:31:29.588Z,4.05
2022-10-22T04:33:59.118Z,4.70
2022-10-22T04:36:27.735Z,3.58
2022-10-22T04:38:58.361Z,4.30
2022-10-22T04:41:28.839Z,3.37
2022-10-22T04:43:58.194Z,4.80
2022-10-22T04:46:32.542Z,5.32
2022-10-22T04:49:00.961Z,3.60
2022-10-22T04:51:29.449Z,3.03
2022-10-22T04:53:57.933Z,3.47
2022-10-22T04:56:28.407Z,3.53
2022-10-22T04:58:58.179Z,3.80
2022-10-22T05:01:28.188Z,5.93
2022-10-22T05:03:59.427Z,7.28
2022-10-22T05:06:29.188Z,4.77
2022-10-22T05:08:59.094Z,3.95
2022-10-22T05:11:29.325Z,3.17
2022-10-22T05:13:58.098Z,2.97
2022-10-22T05:16:27.145Z,3.05
2022-10-22T05:18:55.727Z,2.67
2022-10-22T05:21:25.262Z,3.33
2022-10-22T05:23:54.905Z,3.13
2022-10-22T05:26:27.375Z,5.68
2022-10-22T05:28:55.970Z,4.65
2022-10-22T05:31:24.438Z,6.00
2022-10-22T05:33:52.895Z,4.53
2022-10-22T05:36:22.853Z,3.65
2022-10-22T05:38:52.975Z,3.58
2022-10-22T05:41:22.987Z,3.40
2022-10-22T05:43:52.218Z,2.80
2022-10-22T05:46:23.249Z,5.75
2022-10-22T05:48:52.079Z,2.58
2022-10-22T05:51:20.692Z,4.45
2022-10-22T05:53:55.008Z,2.67
2022-10-22T05:56:24.058Z,2.83
2022-10-22T05:58:52.556Z,3.00
2022-10-22T06:01:23.080Z,2.83
2022-10-22T06:03:51.902Z,4.68
2022-10-22T06:06:22.989Z,6.55
2022-10-22T06:08:53.437Z,3.20
2022-10-22T06:11:24.912Z,4.13
2022-10-22T06:13:53.532Z,4.70
2022-10-22T06:16:22.089Z,3.17
2022-10-22T06:18:50.664Z,6.05
2022-10-22T06:21:19.116Z,3.57
2022-10-22T06:23:47.141Z,3.65
2022-10-22T06:26:17.865Z,2.75
2022-10-22T06:28:47.315Z,5.30
2022-10-22T06:31:15.851Z,4.50
2022-10-22T06:33:44.335Z,4.53
2022-10-22T06:36:14.400Z,6.20
2022-10-22T06:38:42.712Z,2.72
2022-10-22T06:41:12.774Z,5.85
2022-10-22T06:43:40.943Z,3.92
2022-10-22T06:46:14.662Z,3.00
2022-10-22T06:48:51.639Z,2.40
2022-10-22T06:51:21.063Z,3.47
2022-10-22T06:53:49.684Z,2.45
2022-10-22T06:56:20.078Z,2.70
2022-10-22T06:58:48.801Z,3.13
2022-10-22T07:01:20.562Z,3.45
2022-10-22T07:03:49.106Z,3.72
2022-10-22T07:06:17.157Z,4.35
2022-10-22T07:08:45.425Z,2.25
2022-10-22T07:11:16.321Z,2.93
2022-10-22T07:13:45.452Z,3.40
2022-10-22T07:16:14.451Z,2.53
2022-10-22T07:18:46.195Z,3.28
2022-10-22T07:21:16.928Z,3.45
2022-10-22T07:23:45.925Z,2.67
2022-10-22T07:26:23.228Z,4.57
2022-10-22T07:28:53.692Z,6.72
2022-10-22T07:31:24.655Z,4.18
2022-10-22T07:33:55.360Z,2.90
2022-10-22T07:36:24.085Z,2.60
2022-10-22T07:38:56.219Z,2.85
2022-10-22T07:41:25.050Z,4.72
2022-10-22T07:43:53.555Z,2.88
2022-10-22T07:46:24.115Z,3.03
2022-10-22T07:48:55.646Z,2.47
2022-10-22T07:51:26.098Z,3.03
2022-10-22T07:53:55.098Z,5.25
2022-10-22T07:56:24.135Z,2.33
2022-10-22T07:58:53.542Z,2.63
2022-10-22T08:01:28.450Z,6.77
2022-10-22T08:03:58.716Z,2.28
2022-10-22T08:06:28.458Z,4.45
2022-10-22T08:08:57.242Z,3.35
2022-10-22T08:11:26.961Z,3.42
2022-10-22T08:13:55.712Z,3.77
2022-10-22T08:16:25.906Z,4.05
2022-10-22T08:18:56.765Z,3.58
2022-10-22T08:21:25.268Z,2.35
2022-10-22T08:23:54.896Z,3.63
2022-10-22T08:26:23.562Z,2.37
2022-10-22T08:29:01.023Z,4.10
2022-10-22T08:31:41.852Z,9.07
2022-10-22T08:34:10.488Z,4.25
2022-10-22T08:36:39.450Z,2.65
2022-10-22T08:46:29.081Z,3.10
2022-10-22T08:49:01.597Z,3.30
2022-10-22T08:51:34.046Z,9.18
2022-10-22T08:54:37.180Z,6.50
2022-10-22T08:57:34.001Z,2.97
2022-10-22T09:00:06.346Z,2.40
2022-10-22T09:02:45.856Z,3.50
2022-10-22T09:14:37.580Z,5.00
2022-10-22T09:34:38.452Z,3.03
2022-10-22T09:37:09.918Z,3.45
2022-10-22T09:39:43.202Z,3.45
2022-10-22T09:42:27.639Z,3.13
2022-10-22T09:44:58.559Z,3.73
2022-10-22T09:47:43.363Z,2.45
2022-10-22T09:50:31.153Z,2.72
2022-10-22T09:53:02.643Z,3.00
2022-10-22T09:55:33.345Z,3.72
2022-10-22T09:58:02.195Z,6.87
2022-10-22T10:00:33.880Z,3.83
2022-10-22T10:03:06.776Z,3.30
2022-10-22T10:05:37.710Z,6.15
2022-10-22T10:08:15.104Z,3.50
2022-10-22T10:10:47.793Z,4.83
2022-10-22T10:13:32.313Z,2.35
2022-10-22T10:16:08.666Z,5.32
2022-10-22T10:18:57.879Z,4.53
2022-10-22T10:21:36.085Z,4.60
2022-10-22T10:24:16.948Z,8.03
2022-10-22T10:26:51.505Z,7.80
2022-10-22T10:29:31.706Z,5.82
2022-10-22T10:32:36.118Z,3.72
2022-10-22T10:35:42.456Z,5.93
2022-10-22T10:38:40.706Z,5.00
2022-10-22T10:41:24.826Z,4.70
2022-10-22T10:44:19.873Z,3.70
2022-10-22T10:46:59.626Z,2.47
2022-10-22T10:49:31.205Z,6.75
2022-10-22T10:52:07.851Z,4.70
2022-10-22T10:54:48.494Z,4.95
2022-10-22T10:57:26.092Z,5.57
2022-10-22T11:00:11.658Z,2.90
2022-10-22T11:03:23.574Z,3.00
2022-10-22T11:05:55.585Z,3.80
2022-10-22T11:08:27.792Z,7.93
2022-10-22T11:11:01.209Z,8.77
2022-10-22T11:13:34.566Z,4.68
2022-10-22T11:16:08.562Z,4.30
2022-10-22T11:18:42.387Z,4.70
2022-10-22T11:21:18.460Z,4.05
2022-10-22T11:23:55.277Z,3.35
2022-10-22T11:26:37.170Z,4.97
2022-10-22T11:29:08.711Z,3.95
2022-10-22T11:31:50.502Z,4.40
2022-10-22T11:34:33.718Z,3.97
2022-10-22T11:37:03.986Z,4.70
2022-10-22T11:40:05.037Z,3.25
2022-10-22T11:43:30.581Z,4.32
2022-10-22T11:46:31.255Z,4.53
2022-10-22T11:49:06.642Z,5.65
2022-10-22T11:51:36.587Z,6.43
2022-10-22T11:54:31.849Z,5.35
2022-10-22T11:57:18.943Z,3.80
2022-10-22T11:59:52.464Z,4.27
2022-10-22T12:02:44.326Z,3.92
2022-10-22T12:05:45.894Z,6.28
2022-10-22T12:08:29.263Z,4.03
2022-10-22T12:11:05.242Z,5.70
2022-10-22T12:13:35.597Z,5.07
2022-10-22T12:16:05.389Z,3.65
2022-10-22T12:18:43.675Z,6.15
2022-10-22T12:21:13.941Z,4.07
2022-10-22T12:23:43.158Z,3.60
2022-10-22T12:29:00.640Z,6.47
2022-10-22T12:31:38.549Z,6.78
2022-10-22T12:34:16.209Z,6.88
2022-10-22T12:36:44.819Z,4.50
2022-10-22T12:39:17.767Z,5.33
2022-10-22T12:41:46.348Z,5.57
2022-10-22T12:44:15.870Z,5.75
2022-10-22T12:47:10.802Z,4.18
2022-10-22T12:49:46.579Z,4.22
2022-10-22T12:52:44.240Z,3.63
2022-10-22T12:55:32.373Z,3.63
2022-10-22T12:58:00.656Z,6.30
2022-10-22T13:00:34.324Z,4.47
2022-10-22T13:03:08.107Z,4.90
2022-10-22T13:05:40.744Z,7.70
2022-10-22T13:08:12.194Z,3.45
2022-10-22T13:10:42.226Z,3.42
2022-10-22T13:13:32.924Z,4.55
2022-10-22T13:16:20.144Z,3.95
2022-10-22T13:18:49.744Z,5.73
2022-10-22T13:21:29.725Z,6.00
2022-10-22T13:24:00.436Z,5.35
2022-10-22T13:26:34.969Z,4.05
2022-10-22T13:29:06.289Z,7.13
2022-10-22T13:31:37.451Z,4.93
2022-10-22T13:34:11.770Z,5.70
2022-10-22T13:36:43.820Z,5.25
2022-10-22T13:39:18.343Z,2.92
2022-10-22T13:41:50.585Z,5.00
2022-10-22T13:44:19.779Z,3.63
2022-10-22T13:46:49.523Z,4.40
2022-10-22T13:49:22.738Z,6.55
2022-10-22T13:51:53.053Z,4.13
2022-10-22T13:54:23.901Z,8.02
2022-10-22T13:56:52.887Z,5.00
2022-10-22T13:59:22.994Z,9.73
2022-10-22T14:01:53.264Z,5.78
2022-10-22T14:04:21.633Z,6.65
2022-10-22T14:06:50.093Z,5.45
2022-10-22T14:09:20.766Z,6.23
2022-10-22T14:11:50.114Z,7.15
2022-10-22T14:14:19.140Z,7.32
2022-10-22T14:16:56.921Z,11.50
2022-10-22T14:19:26.086Z,7.38
2022-10-22T14:21:54.402Z,7.67
2022-10-22T14:24:29.961Z,8.27
2022-10-22T14:26:58.485Z,5.38
2022-10-22T14:29:27.404Z,6.82
2022-10-22T14:31:56.179Z,8.43
2022-10-22T14:34:24.830Z,14.23
2022-10-22T14:36:53.465Z,15.60
2022-10-22T14:39:22.663Z,11.30
2022-10-22T14:41:52.277Z,7.38
2022-10-22T14:44:28.256Z,5.60
2022-10-22T14:46:57.250Z,9.03
2022-10-22T14:49:25.990Z,7.55
2022-10-22T14:51:54.521Z,9.80
2022-10-22T14:54:22.949Z,6.55
2022-10-22T14:56:57.293Z,5.05
2022-10-22T14:59:26.117Z,9.50
2022-10-22T15:02:41.801Z,5.30
2022-10-22T15:05:11.324Z,7.43
2022-10-22T15:07:52.278Z,6.80
2022-10-22T15:10:21.264Z,6.35
2022-10-22T15:12:51.997Z,6.70
2022-10-22T15:15:22.754Z,5.03
2022-10-22T15:17:52.852Z,5.25
2022-10-22T15:20:30.572Z,7.28
2022-10-22T15:22:59.960Z,4.85
2022-10-22T15:25:31.824Z,7.10
2022-10-22T15:28:09.421Z,4.75
2022-10-22T15:30:47.312Z,8.27
2022-10-22T15:33:23.810Z,8.15
2022-10-22T15:35:52.991Z,5.72
2022-10-22T15:38:22.728Z,4.63
2022-10-22T15:40:52.517Z,8.95
2022-10-22T15:43:22.637Z,6.68
2022-10-22T15:46:12.929Z,4.93
2022-10-22T15:48:44.899Z,8.70
2022-10-22T15:51:30.674Z,11.33
2022-10-22T15:54:10.131Z,6.55
2022-10-22T15:56:39.234Z,4.38
2022-10-22T15:59:15.674Z,5.53
2022-10-22T16:01:44.875Z,5.93
2022-10-22T16:04:20.265Z,7.37
2022-10-22T16:06:53.819Z,9.90
2022-10-22T16:09:24.867Z,8.48
2022-10-22T16:11:58.081Z,7.53
2022-10-22T16:14:29.415Z,10.63
2022-10-22T16:16:59.800Z,6.90
2022-10-22T16:19:28.517Z,11.38
2022-10-22T16:22:01.713Z,7.00
2022-10-22T16:24:30.538Z,7.93
2022-10-22T16:27:00.511Z,7.35
2022-10-22T16:29:30.337Z,6.70
2022-10-22T16:32:01.994Z,8.45
2022-10-22T16:34:33.845Z,6.10
2022-10-22T16:37:02.734Z,6.13
2022-10-22T16:39:33.557Z,9.25
2022-10-22T16:42:02.340Z,6.23
2022-10-22T16:44:32.162Z,7.45
2022-10-22T16:47:01.011Z,6.47
2022-10-22T16:49:31.019Z,7.63
2022-10-22T16:51:59.799Z,10.18
2022-10-22T16:54:28.445Z,7.93
2022-10-22T16:56:57.024Z,7.80
2022-10-22T16:59:25.606Z,5.45
2022-10-22T17:01:55.719Z,7.38
2022-10-22T17:04:24.464Z,10.18
2022-10-22T17:06:53.101Z,7.87
2022-10-22T17:09:21.715Z,8.30
2022-10-22T17:11:50.270Z,16.88
2022-10-22T17:14:21.149Z,13.20
2022-10-22T17:16:53.786Z,10.15
2022-10-22T17:19:25.074Z,10.43
2022-10-22T17:21:54.325Z,9.77
2022-10-22T17:24:23.066Z,10.82
2022-10-22T17:26:51.755Z,11.15
2022-10-22T17:29:21.939Z,12.35
2022-10-22T17:31:50.539Z,10.63
2022-10-22T17:34:19.309Z,10.88
2022-10-22T17:36:49.129Z,12.00
2022-10-22T17:39:19.692Z,9.98
2022-10-22T17:41:48.134Z,10.10
2022-10-22T17:44:17.421Z,9.07
2022-10-22T17:46:46.476Z,13.77
2022-10-22T17:49:18.593Z,15.05
2022-10-22T17:51:49.105Z,13.48
2022-10-22T17:54:17.750Z,14.60
2022-10-22T17:56:46.401Z,11.93
2022-10-22T17:59:16.118Z,13.05
2022-10-22T18:01:47.147Z,11.60
2022-10-22T18:04:17.899Z,15.00
2022-10-22T18:06:47.734Z,14.30
2022-10-22T18:09:19.549Z,11.43
2022-10-22T18:11:49.523Z,17.83
2022-10-22T18:14:19.133Z,14.30
2022-10-22T18:16:48.092Z,14.40
2022-10-22T18:19:18.717Z,14.10
2022-10-22T18:21:48.006Z,14.47
2022-10-22T18:24:19.068Z,14.80
2022-10-22T18:26:47.953Z,17.50
2022-10-22T18:29:18.299Z,16.20
2022-10-22T18:31:47.774Z,15.65
2022-10-22T18:34:18.913Z,15.90
2022-10-22T18:36:50.479Z,15.23
2022-10-22T18:39:20.382Z,11.20
2022-10-22T18:41:48.928Z,12.70
2022-10-22T18:44:17.976Z,12.77
2022-10-22T18:46:48.877Z,16.17
2022-10-22T18:49:19.953Z,16.92
2022-10-22T18:51:52.803Z,14.95
2022-10-22T18:54:24.439Z,17.42
2022-10-22T18:56:59.349Z,14.88
2022-10-22T18:59:30.494Z,14.33
2022-10-22T19:01:59.996Z,17.38
2022-10-22T19:04:33.332Z,14.35
2022-10-22T19:07:01.932Z,14.07
2022-10-22T19:09:31.579Z,17.83
2022-10-22T19:12:00.564Z,16.60
2022-10-22T19:14:28.797Z,16.33
2022-10-22T19:16:57.197Z,21.15
2022-10-22T19:19:25.781Z,16.70
2022-10-22T19:21:56.485Z,18.35
2022-10-22T19:24:24.727Z,17.00
2022-10-22T19:26:54.406Z,18.00
2022-10-22T19:29:23.168Z,14.10
2022-10-22T19:31:51.952Z,15.70
2022-10-22T19:34:20.729Z,17.30
2022-10-22T19:36:51.735Z,18.70
2022-10-22T19:39:20.398Z,17.95
2022-10-22T19:41:48.979Z,18.88
2022-10-22T19:44:19.806Z,19.67
2022-10-22T19:46:48.313Z,18.55
2022-10-22T19:49:19.105Z,18.63
2022-10-22T19:51:50.558Z,16.75
2022-10-22T19:54:20.450Z,14.63
2022-10-22T19:56:49.645Z,13.65
2022-10-22T19:59:20.703Z,15.80
2022-10-22T20:01:49.132Z,14.40
2022-10-22T20:04:18.983Z,13.00
2022-10-22T20:06:47.592Z,15.50
2022-10-22T20:09:16.377Z,12.80
2022-10-22T20:11:45.010Z,12.50
2022-10-22T20:14:16.284Z,18.60
2022-10-22T20:16:49.245Z,16.48
2022-10-22T20:19:18.336Z,16.85
2022-10-22T20:21:48.496Z,17.70
2022-10-22T20:24:17.240Z,19.40
2022-10-22T20:26:46.890Z,19.33
2022-10-22T20:29:16.371Z,14.90
2022-10-22T20:31:46.808Z,17.08
2022-10-22T20:34:42.501Z,20.65
2022-10-22T20:37:11.082Z,13.23
2022-10-22T20:39:41.305Z,15.67
2022-10-22T20:42:16.370Z,13.27
2022-10-22T20:44:44.869Z,14.10
2022-10-22T20:47:24.755Z,13.10
2022-10-22T20:49:58.976Z,16.15
2022-10-22T20:52:27.082Z,15.43
2022-10-22T20:54:55.551Z,12.73
2022-10-22T20:57:24.044Z,14.52
2022-10-22T20:59:54.661Z,11.45
2022-10-22T21:02:26.548Z,13.43
2022-10-22T21:04:54.916Z,12.40
2022-10-22T21:07:23.445Z,14.63
2022-10-22T21:09:51.967Z,15.68
2022-10-22T21:12:20.641Z,13.40
2022-10-22T21:14:49.125Z,10.88
2022-10-22T21:17:17.664Z,17.90
2022-10-22T21:19:47.086Z,13.88
2022-10-22T21:22:21.449Z,14.68
2022-10-22T21:24:49.863Z,12.85
2022-10-22T21:27:24.396Z,13.35
2022-10-22T21:29:52.469Z,11.63
2022-10-22T21:32:22.503Z,10.18
2022-10-22T21:34:55.052Z,11.73
2022-10-22T21:37:47.175Z,14.77
2022-10-22T21:40:15.649Z,10.02
2022-10-22T21:42:44.409Z,11.07
2022-10-22T21:45:58.273Z,13.43
2022-10-22T21:48:26.996Z,18.55
2022-10-22T21:50:59.671Z,55.53
2022-10-22T21:53:31.518Z,29.23
2022-10-22T21:55:59.664Z,23.97
2022-10-22T21:58:38.381Z,20.67
2022-10-22T22:01:06.976Z,11.38
2022-10-22T22:04:19.482Z,8.93
2022-10-22T22:06:51.896Z,21.52
2022-10-22T22:09:26.750Z,35.80
2022-10-22T22:12:21.262Z,47.30
2022-10-22T22:14:52.050Z,25.48
2022-10-22T22:17:25.306Z,10.70
2022-10-22T22:20:56.151Z,8.98
2022-10-22T22:23:25.834Z,12.57
2022-10-22T22:25:56.617Z,10.48
2022-10-22T22:28:27.402Z,10.45
2022-10-22T22:30:55.782Z,8.65
2022-10-22T22:33:27.534Z,40.00
2022-10-22T22:36:23.516Z,12.80
2022-10-22T22:38:55.381Z,26.95
2022-10-22T22:41:26.410Z,23.80
2022-10-22T22:46:30.077Z,15.02
2022-10-22T22:48:58.461Z,14.53
2022-10-22T22:51:28.944Z,16.40
2022-10-22T22:54:29.550Z,14.10
2022-10-22T22:56:57.898Z,16.55
2022-10-22T22:59:26.352Z,17.00
2022-10-22T23:01:54.724Z,17.20
2022-10-22T23:04:31.599Z,23.40
2022-10-22T23:07:00.210Z,19.92
2022-10-22T23:09:29.744Z,16.17
2022-10-22T23:11:58.282Z,21.70
2022-10-22T23:14:26.741Z,22.33
2022-10-22T23:16:55.442Z,15.43
2022-10-22T23:19:24.491Z,18.00
2022-10-22T23:21:54.610Z,15.75
2022-10-22T23:24:26.869Z,20.15
2022-10-22T23:26:57.902Z,18.43
2022-10-22T23:29:27.722Z,20.45
2022-10-22T23:31:56.190Z,22.15
2022-10-22T23:34:26.822Z,14.00
2022-10-22T23:36:59.745Z,10.88
2022-10-22T23:39:29.553Z,10.93
2022-10-22T23:41:59.499Z,8.90
2022-10-22T23:44:27.623Z,9.10
2022-10-22T23:46:56.187Z,9.25
2022-10-22T23:49:24.299Z,8.15
2022-10-22T23:51:52.768Z,11.83
2022-10-22T23:54:21.472Z,8.45
2022-10-22T23:56:49.578Z,7.63
2022-10-22T23:59:19.102Z,8.57
